Accueil
METAR-TAF:

METAR-TAF

Aéroports :

Aéroport de Vannes

Vannes, France

latitude: 47-43-19N, longitude: 2-43-41W, altitude: 130 m

Observation

Le bulletin a été fait il y a 34 minutes, à 06:30 UTC
Vent 13 kt de sud-ouest, variant entre sud et ouest
Température 12°C
Humidité 100%
Pression 994 hPa
Visibilité: 2600 m
Ciel couvert à une hauteur de 300 ft
pluie faible, brume,

METAR: LFRV 220630Z AUTO 23013KT 190V270 2600 -RA BR OVC003 12/12 Q0994

Heure: 08:04 (07:04 UTC)


TAF: absent

Observations et prévisions météorologiques de plus de 4000 aéroports (messages METAR et TAF).

Les stations disponibles sont représentées par des disques jaunes et rouges sur la carte.

Passer la souris dessus pour voir le nom de la station.

Cliquer dessus pour voir les observations et prévisions météorologiques.

Pour changer de carte: cliquez sur les boutons verts avec une croix noire pour zoomer, sur le bouton vert avec un tiret pour effectuer un zoom arrière, ou sur les flèches vertes pour les cartes adjacentes.


METAR-TAF: